Raleigh, NC (27603)

1:57 PM EDT op 30 augustus 2015 (GMT -0400)
Colonial Heights | | Change Station
CLOSE
Current Station
Persoonlijk weerstation
Location: Raleigh, NC
Geometrische hoogte: 305 ft
Nabije weerstations

Hoogte 305 ft 35.69 °N, 78.67 °W | Updated 31 seconds ago

Gedeeltelijk bewolkt
Gedeeltelijk bewolkt
84.6 °F
Voelt als 85 °F
N
0.0
Wind Variabel Wind van noord
Gusts 0.0 mijl/u

Vandaag
Hoog -- | Laag -- °F
--% Kans op neerslag
Gisteren
Hoog -- | Laag -- °F
Precip. -- inches
6:44 AM 7:45 PM
Volle maan, 99% visible
Druk 30.14 inches
Zicht 10.0 mijlen
Wolken Gering 6000 ft
Merendeels bewolkt 15000 ft
Geheel bewolkt 20000 ft
Warmteindex 85 °F
Dauwpunt 62 °F
Vochtigheid 47%
Neerslag 0.00 inches
Dikte sneeuw Niet beschikbaar.
UV 3 van de 12
Pollen 7.80 van de 12
Luchtkwaliteit Niet beschikbaar.
Flu Activity Niet beschikbaar.
METAR KRDU 301751Z VRB03KT 10SM FEW060 BKN150 OVC200 29/15 A3015 RMK AO2 SLP205 T02890150 10300 20206 56016
Druk 30.14 inches
Zicht 10.0 mijlen
Wolken Gering 6000 ft
Merendeels bewolkt 15000 ft
Geheel bewolkt 20000 ft
Warmteindex 85 °F
Dauwpunt 62 °F
Vochtigheid 47%
Neerslag 0.00 inches
Dikte sneeuw Niet beschikbaar.
UV 3 van de 12
Pollen 7.80 van de 12
Luchtkwaliteit Niet beschikbaar.
Flu Activity Niet beschikbaar.
METAR KRDU 301751Z VRB03KT 10SM FEW060 BKN150 OVC200 29/15 A3015 RMK AO2 SLP205 T02890150 10300 20206 56016

10-Day Weather Forecast

×

Almanac

Astronomie

Aug. 30, 2015 Opkomst Ondergang
Werkelijke tijd
Burgerlijke schemering
Nautische schemering
Astronomische schemering
Maan
Golflengte van het zichtbare licht
Daglengte
Tomorrow will be .
, % of the Moon is Illuminated

Extremen vandaag

State Highs State Lows

Community

WunderPhotos

Upload Photos

1,851,014 foto’s ge-upload!

WunderBlogs® & News

Nearby

Luchtkwaliteit

  Luchtkwaliteit LK-index Verontreinigende stof
Not available.

Dikte sneeuw

Station Depth Geometrische hoogte

Aardbevingen

Stad Distance Mag. Time & Date
Minimum magnitude displayed is 2.5.

Watertemperatuur langs de kust

Plaats Temperatuur

Stations

Nabije weerstations

Locatie station Temp. Gevoelstemperatuur Dauwpunt Vochtigheid Wind Precip. Hoogte Geactualiseerd Type